Tenpaizan Maru — JD2032 — position and weather

sailwx.info

Track history (hours):
 
Tides and Currents Weather Stations Pressure Air Temp Water Temp Dewpoint Dewpoint Depression Visibility Wind Speed Wind Dir Waves Ship Positions

Tenpaizan Maru

Last reported at 2017-Nov-17 11:07 UTC. Time now 2017-Nov-24 16:45 UTC.
Position N 34°55' E 139°19'.

Length 126 m; draft 6.6 m.

Type: Cargo ship. MMSI: 431602283.

Date/timePositionNaut miles runAvg speedWind from/ knotsBaromVisibWave heightAir tempDewpointWater temp
2017-Nov-17 11:07N 34°55' E 139°19'314.3
2017-Nov-17 10:54N 34°57' E 139°22'614.3
2017-Nov-17 10:30N 34°60' E 139°28'714.4
2017-Nov-17 10:00N 35°03' E 139°36'714.7
2017-Nov-17 09:30N 35°08' E 139°43'714.1
2017-Nov-17 09:00N 35°14' E 139°46'713.6
2017-Nov-17 08:31N 35°20' E 139°42'612.7
2017-Nov-17 08:00N 35°26' E 139°45'714.5
2017-Nov-17 07:30N 35°31' E 139°52'714.1
2017-Nov-17 07:00N 35°36' E 139°58'4 0.5
2017-Nov-16 22:54N 35°40' E 139°59'510.3
2017-Nov-16 22:23N 35°34' E 139°58'512.7
2017-Nov-16 22:00N 35°31' E 139°54'612.5
2017-Nov-16 21:31N 35°26' E 139°49'612.1
2017-Nov-16 21:01N 35°21' E 139°45'510.5
2017-Nov-16 20:31N 35°16' E 139°46'611.8
2017-Nov-16 20:01N 35°10' E 139°46'713.2
2017-Nov-16 19:30N 35°04' E 139°42'613.0
2017-Nov-16 19:00N 35°00' E 139°36'5 9.7
2017-Nov-16 18:30N 34°58' E 139°30'713.0
2017-Nov-16 17:59N 34°53' E 139°37'4 8.9
2017-Nov-16 17:30N 34°52' E 139°32'  
2017-Nov-11 15:04N 34°56' E 139°22'114.0
2017-Nov-11 15:00N 34°57' E 139°23'714.3
2017-Nov-11 14:31N 35°01' E 139°31'714.7
2017-Nov-11 14:01N 35°04' E 139°38'714.4
2017-Nov-11 13:31N 35°09' E 139°45'713.5
2017-Nov-11 13:00N 35°16' E 139°46'713.5
2017-Nov-11 12:30N 35°22' E 139°42'714.0
2017-Nov-11 12:00N 35°27' E 139°48'714.7
2017-Nov-11 11:30N 35°33' E 139°54'713.8
2017-Nov-11 10:59N 35°39' E 139°59'1 0.1
2017-Nov-11 00:21N 35°40' E 139°59'3 7.8
2017-Nov-10 23:58N 35°37' E 139°59'4 8.6
2017-Nov-10 23:28N 35°33' E 139°57'613.2
2017-Nov-10 23:00N 35°28' E 139°52'713.5
2017-Nov-10 22:30N 35°24' E 139°46'612.2
2017-Nov-10 22:00N 35°17' E 139°45'612.6
2017-Nov-10 21:30N 35°11' E 139°47'713.6
2017-Nov-10 21:00N 35°05' E 139°44'713.2
2017-Nov-10 20:30N 34°59' E 139°40'713.6
2017-Nov-10 20:00N 34°52' E 139°39'4 6.7
2017-Nov-10 19:29N 34°49' E 139°37'  
Track history (hours):
 
Tides and Currents Weather Stations Pressure Air Temp Water Temp Dewpoint Dewpoint Depression Visibility Wind Speed Wind Dir Waves Ship Positions

Tenpaizan Maru

Last reported at 2017-Nov-17 11:07 UTC. Time now 2017-Nov-24 16:45 UTC.
Position N 34°55' E 139°19'.

Length 126 m; draft 6.6 m.

Type: Cargo ship. MMSI: 431602283.

Date/timePositionNaut miles runAvg speedWind from/ knotsBaromVisibWave heightAir tempDewpointWater temp
2017-Nov-17 11:07N 34°55' E 139°19'314.3
2017-Nov-17 10:54N 34°57' E 139°22'614.3
2017-Nov-17 10:30N 34°60' E 139°28'714.4
2017-Nov-17 10:00N 35°03' E 139°36'714.7
2017-Nov-17 09:30N 35°08' E 139°43'714.1
2017-Nov-17 09:00N 35°14' E 139°46'713.6
2017-Nov-17 08:31N 35°20' E 139°42'612.7
2017-Nov-17 08:00N 35°26' E 139°45'714.5
2017-Nov-17 07:30N 35°31' E 139°52'714.1
2017-Nov-17 07:00N 35°36' E 139°58'4 0.5
2017-Nov-16 22:54N 35°40' E 139°59'510.3
2017-Nov-16 22:23N 35°34' E 139°58'512.7
2017-Nov-16 22:00N 35°31' E 139°54'612.5
2017-Nov-16 21:31N 35°26' E 139°49'612.1
2017-Nov-16 21:01N 35°21' E 139°45'510.5
2017-Nov-16 20:31N 35°16' E 139°46'611.8
2017-Nov-16 20:01N 35°10' E 139°46'713.2
2017-Nov-16 19:30N 35°04' E 139°42'613.0
2017-Nov-16 19:00N 35°00' E 139°36'5 9.7
2017-Nov-16 18:30N 34°58' E 139°30'713.0
2017-Nov-16 17:59N 34°53' E 139°37'4 8.9
2017-Nov-16 17:30N 34°52' E 139°32'  
2017-Nov-11 15:04N 34°56' E 139°22'114.0
2017-Nov-11 15:00N 34°57' E 139°23'714.3
2017-Nov-11 14:31N 35°01' E 139°31'714.7
2017-Nov-11 14:01N 35°04' E 139°38'714.4
2017-Nov-11 13:31N 35°09' E 139°45'713.5
2017-Nov-11 13:00N 35°16' E 139°46'713.5
2017-Nov-11 12:30N 35°22' E 139°42'714.0
2017-Nov-11 12:00N 35°27' E 139°48'714.7
2017-Nov-11 11:30N 35°33' E 139°54'713.8
2017-Nov-11 10:59N 35°39' E 139°59'1 0.1
2017-Nov-11 00:21N 35°40' E 139°59'3 7.8
2017-Nov-10 23:58N 35°37' E 139°59'4 8.6
2017-Nov-10 23:28N 35°33' E 139°57'613.2
2017-Nov-10 23:00N 35°28' E 139°52'713.5
2017-Nov-10 22:30N 35°24' E 139°46'612.2
2017-Nov-10 22:00N 35°17' E 139°45'612.6
2017-Nov-10 21:30N 35°11' E 139°47'713.6
2017-Nov-10 21:00N 35°05' E 139°44'713.2
2017-Nov-10 20:30N 34°59' E 139°40'713.6
2017-Nov-10 20:00N 34°52' E 139°39'4 6.7
2017-Nov-10 19:29N 34°49' E 139°37'  

Dump ship's entire track history